sensor_id;sensor_type;location;lat;lon;timestamp;P1;durP1;ratioP1;P2;durP2;ratioP2
54947;SDS011;41113;41.882;12.530;2022-09-28T00:01:58;13.70;;;3.35;;
54947;SDS011;41113;41.882;12.530;2022-09-28T00:04:23;21.58;;;3.88;;
54947;SDS011;41113;41.882;12.530;2022-09-28T00:06:49;13.98;;;3.75;;
54947;SDS011;41113;41.882;12.530;2022-09-28T00:09:15;15.30;;;3.40;;
54947;SDS011;41113;41.882;12.530;2022-09-28T00:11:41;18.98;;;3.47;;
54947;SDS011;41113;41.882;12.530;2022-09-28T00:14:08;17.17;;;3.47;;
54947;SDS011;41113;41.882;12.530;2022-09-28T00:16:39;14.32;;;2.70;;
54947;SDS011;41113;41.882;12.530;2022-09-28T00:19:07;16.40;;;3.35;;
54947;SDS011;41113;41.882;12.530;2022-09-28T00:21:34;19.52;;;3.83;;
54947;SDS011;41113;41.882;12.530;2022-09-28T00:24:02;20.05;;;4.60;;
54947;SDS011;41113;41.882;12.530;2022-09-28T00:26:44;18.42;;;3.95;;
54947;SDS011;41113;41.882;12.530;2022-09-28T00:31:51;19.35;;;4.57;;
54947;SDS011;41113;41.882;12.530;2022-09-28T00:34:21;17.83;;;3.75;;
54947;SDS011;41113;41.882;12.530;2022-09-28T00:36:46;18.35;;;3.42;;
54947;SDS011;41113;41.882;12.530;2022-09-28T00:39:13;23.42;;;3.78;;
54947;SDS011;41113;41.882;12.530;2022-09-28T00:41:40;18.35;;;3.60;;
54947;SDS011;41113;41.882;12.530;2022-09-28T00:49:31;18.98;;;4.22;;
54947;SDS011;41113;41.882;12.530;2022-09-28T00:52:35;22.98;;;4.07;;
54947;SDS011;41113;41.882;12.530;2022-09-28T00:55:07;21.45;;;3.50;;
54947;SDS011;41113;41.882;12.530;2022-09-28T00:57:38;14.55;;;2.92;;
54947;SDS011;41113;41.882;12.530;2022-09-28T01:00:08;13.55;;;3.17;;
54947;SDS011;41113;41.882;12.530;2022-09-28T01:02:34;16.70;;;3.10;;
54947;SDS011;41113;41.882;12.530;2022-09-28T01:05:00;12.55;;;3.25;;
54947;SDS011;41113;41.882;12.530;2022-09-28T01:07:29;19.45;;;3.92;;
54947;SDS011;41113;41.882;12.530;2022-09-28T01:09:56;13.50;;;2.67;;
54947;SDS011;41113;41.882;12.530;2022-09-28T01:12:21;14.52;;;3.15;;
54947;SDS011;41113;41.882;12.530;2022-09-28T01:14:47;14.30;;;2.90;;
54947;SDS011;41113;41.882;12.530;2022-09-28T01:17:15;14.85;;;3.38;;
54947;SDS011;41113;41.882;12.530;2022-09-28T01:27:46;16.08;;;3.15;;
54947;SDS011;41113;41.882;12.530;2022-09-28T01:30:17;16.20;;;3.00;;
54947;SDS011;41113;41.882;12.530;2022-09-28T01:37:51;17.45;;;3.75;;
54947;SDS011;41113;41.882;12.530;2022-09-28T01:40:21;18.60;;;4.65;;
54947;SDS011;41113;41.882;12.530;2022-09-28T01:42:50;15.48;;;4.30;;
54947;SDS011;41113;41.882;12.530;2022-09-28T01:45:31;21.73;;;4.32;;
54947;SDS011;41113;41.882;12.530;2022-09-28T01:48:03;17.95;;;4.97;;
54947;SDS011;41113;41.882;12.530;2022-09-28T01:50:34;18.87;;;4.00;;
54947;SDS011;41113;41.882;12.530;2022-09-28T01:53:09;17.88;;;3.97;;
54947;SDS011;41113;41.882;12.530;2022-09-28T01:55:43;15.07;;;3.97;;
54947;SDS011;41113;41.882;12.530;2022-09-28T02:00:45;18.17;;;4.13;;
54947;SDS011;41113;41.882;12.530;2022-09-28T02:03:59;17.60;;;4.10;;
54947;SDS011;41113;41.882;12.530;2022-09-28T02:06:20;19.23;;;4.82;;
54947;SDS011;41113;41.882;12.530;2022-09-28T02:08:54;20.33;;;4.80;;
54947;SDS011;41113;41.882;12.530;2022-09-28T02:11:23;22.83;;;4.57;;
54947;SDS011;41113;41.882;12.530;2022-09-28T02:13:59;20.05;;;4.35;;
54947;SDS011;41113;41.882;12.530;2022-09-28T02:16:41;20.90;;;5.43;;
54947;SDS011;41113;41.882;12.530;2022-09-28T02:19:18;21.92;;;5.18;;
54947;SDS011;41113;41.882;12.530;2022-09-28T02:26:59;19.00;;;4.50;;
54947;SDS011;41113;41.882;12.530;2022-09-28T02:29:33;19.90;;;4.50;;
54947;SDS011;41113;41.882;12.530;2022-09-28T02:31:58;20.50;;;3.60;;
54947;SDS011;41113;41.882;12.530;2022-09-28T02:34:24;19.90;;;4.18;;
54947;SDS011;41113;41.882;12.530;2022-09-28T02:36:50;23.30;;;4.22;;
54947;SDS011;41113;41.882;12.530;2022-09-28T02:39:16;22.23;;;4.65;;
54947;SDS011;41113;41.882;12.530;2022-09-28T02:41:47;20.88;;;4.57;;
54947;SDS011;41113;41.882;12.530;2022-09-28T02:47:31;21.83;;;4.72;;
54947;SDS011;41113;41.882;12.530;2022-09-28T02:50:11;27.02;;;5.00;;
54947;SDS011;41113;41.882;12.530;2022-09-28T02:56:09;20.95;;;5.20;;
54947;SDS011;41113;41.882;12.530;2022-09-28T02:58:46;20.90;;;4.75;;
54947;SDS011;41113;41.882;12.530;2022-09-28T03:06:46;25.10;;;5.20;;
54947;SDS011;41113;41.882;12.530;2022-09-28T03:09:24;24.17;;;4.95;;
54947;SDS011;41113;41.882;12.530;2022-09-28T03:11:57;21.58;;;4.68;;
54947;SDS011;41113;41.882;12.530;2022-09-28T03:14:28;19.83;;;4.70;;
54947;SDS011;41113;41.882;12.530;2022-09-28T03:16:54;23.13;;;4.70;;
54947;SDS011;41113;41.882;12.530;2022-09-28T03:19:20;22.02;;;4.97;;
54947;SDS011;41113;41.882;12.530;2022-09-28T03:21:50;17.60;;;4.68;;
54947;SDS011;41113;41.882;12.530;2022-09-28T03:24:16;19.00;;;3.75;;
54947;SDS011;41113;41.882;12.530;2022-09-28T03:26:41;20.42;;;4.97;;
54947;SDS011;41113;41.882;12.530;2022-09-28T03:29:07;22.05;;;4.80;;
54947;SDS011;41113;41.882;12.530;2022-09-28T03:31:32;20.17;;;4.22;;
54947;SDS011;41113;41.882;12.530;2022-09-28T03:33:59;18.38;;;5.00;;
54947;SDS011;41113;41.882;12.530;2022-09-28T03:36:24;19.15;;;4.60;;
54947;SDS011;41113;41.882;12.530;2022-09-28T03:38:52;23.65;;;6.90;;
54947;SDS011;41113;41.882;12.530;2022-09-28T03:41:22;20.20;;;5.43;;
54947;SDS011;41113;41.882;12.530;2022-09-28T03:43:48;20.67;;;5.30;;
54947;SDS011;41113;41.882;12.530;2022-09-28T03:46:14;20.10;;;5.25;;
54947;SDS011;41113;41.882;12.530;2022-09-28T03:48:39;21.65;;;4.93;;
54947;SDS011;41113;41.882;12.530;2022-09-28T03:51:06;23.65;;;5.43;;
54947;SDS011;41113;41.882;12.530;2022-09-28T03:53:34;23.17;;;4.28;;
54947;SDS011;41113;41.882;12.530;2022-09-28T03:56:03;13.02;;;3.75;;
54947;SDS011;41113;41.882;12.530;2022-09-28T03:58:30;18.08;;;4.30;;
54947;SDS011;41113;41.882;12.530;2022-09-28T04:01:00;16.90;;;4.55;;
54947;SDS011;41113;41.882;12.530;2022-09-28T04:03:27;22.63;;;4.95;;
54947;SDS011;41113;41.882;12.530;2022-09-28T04:05:52;20.25;;;4.10;;
54947;SDS011;41113;41.882;12.530;2022-09-28T04:08:18;17.65;;;4.18;;
54947;SDS011;41113;41.882;12.530;2022-09-28T04:10:44;20.15;;;4.20;;
54947;SDS011;41113;41.882;12.530;2022-09-28T04:13:09;20.40;;;4.57;;
54947;SDS011;41113;41.882;12.530;2022-09-28T04:15:35;19.45;;;4.68;;
54947;SDS011;41113;41.882;12.530;2022-09-28T04:18:02;22.42;;;4.85;;
54947;SDS011;41113;41.882;12.530;2022-09-28T04:20:28;18.75;;;4.13;;
54947;SDS011;41113;41.882;12.530;2022-09-28T04:22:54;23.13;;;5.15;;
54947;SDS011;41113;41.882;12.530;2022-09-28T04:25:19;20.75;;;5.18;;
54947;SDS011;41113;41.882;12.530;2022-09-28T04:27:44;19.02;;;5.15;;
54947;SDS011;41113;41.882;12.530;2022-09-28T04:30:28;14.63;;;3.67;;
54947;SDS011;41113;41.882;12.530;2022-09-28T04:32:54;16.48;;;3.50;;
54947;SDS011;41113;41.882;12.530;2022-09-28T04:35:19;15.73;;;4.05;;
54947;SDS011;41113;41.882;12.530;2022-09-28T04:37:45;19.52;;;4.47;;
54947;SDS011;41113;41.882;12.530;2022-09-28T04:40:10;21.73;;;4.40;;
54947;SDS011;41113;41.882;12.530;2022-09-28T04:42:35;22.33;;;4.60;;
54947;SDS011;41113;41.882;12.530;2022-09-28T04:45:01;19.27;;;4.40;;
54947;SDS011;41113;41.882;12.530;2022-09-28T04:47:28;16.23;;;4.03;;
54947;SDS011;41113;41.882;12.530;2022-09-28T04:49:54;17.52;;;4.05;;
54947;SDS011;41113;41.882;12.530;2022-09-28T04:52:19;17.85;;;4.05;;
54947;SDS011;41113;41.882;12.530;2022-09-28T04:54:45;17.30;;;4.00;;
54947;SDS011;41113;41.882;12.530;2022-09-28T04:57:10;19.20;;;4.07;;
54947;SDS011;41113;41.882;12.530;2022-09-28T04:59:35;18.95;;;3.85;;
54947;SDS011;41113;41.882;12.530;2022-09-28T05:02:02;13.05;;;3.05;;
54947;SDS011;41113;41.882;12.530;2022-09-28T05:04:28;19.88;;;4.10;;
54947;SDS011;41113;41.882;12.530;2022-09-28T05:06:54;17.05;;;4.25;;
54947;SDS011;41113;41.882;12.530;2022-09-28T05:09:20;20.40;;;4.22;;
54947;SDS011;41113;41.882;12.530;2022-09-28T05:11:47;18.75;;;4.30;;
54947;SDS011;41113;41.882;12.530;2022-09-28T05:14:13;19.45;;;5.57;;
54947;SDS011;41113;41.882;12.530;2022-09-28T05:16:39;23.88;;;4.88;;
54947;SDS011;41113;41.882;12.530;2022-09-28T05:19:04;20.38;;;4.63;;
54947;SDS011;41113;41.882;12.530;2022-09-28T05:21:30;22.38;;;4.60;;
54947;SDS011;41113;41.882;12.530;2022-09-28T05:23:55;16.70;;;4.63;;
54947;SDS011;41113;41.882;12.530;2022-09-28T05:26:22;18.17;;;4.60;;
54947;SDS011;41113;41.882;12.530;2022-09-28T05:28:48;22.13;;;5.43;;
54947;SDS011;41113;41.882;12.530;2022-09-28T05:31:14;19.38;;;4.38;;
54947;SDS011;41113;41.882;12.530;2022-09-28T05:33:40;21.05;;;4.75;;
54947;SDS011;41113;41.882;12.530;2022-09-28T05:36:07;18.63;;;3.95;;
54947;SDS011;41113;41.882;12.530;2022-09-28T05:38:34;20.02;;;4.82;;
54947;SDS011;41113;41.882;12.530;2022-09-28T05:41:00;22.48;;;4.78;;
54947;SDS011;41113;41.882;12.530;2022-09-28T05:43:26;20.33;;;5.60;;
54947;SDS011;41113;41.882;12.530;2022-09-28T05:45:51;25.08;;;4.55;;
54947;SDS011;41113;41.882;12.530;2022-09-28T05:48:16;22.77;;;5.20;;
54947;SDS011;41113;41.882;12.530;2022-09-28T05:50:42;20.10;;;4.85;;
54947;SDS011;41113;41.882;12.530;2022-09-28T05:53:08;25.15;;;5.60;;
54947;SDS011;41113;41.882;12.530;2022-09-28T05:55:34;20.58;;;4.80;;
54947;SDS011;41113;41.882;12.530;2022-09-28T05:58:01;21.63;;;5.40;;
54947;SDS011;41113;41.882;12.530;2022-09-28T06:00:29;23.73;;;5.40;;
54947;SDS011;41113;41.882;12.530;2022-09-28T06:02:58;20.98;;;4.63;;
54947;SDS011;41113;41.882;12.530;2022-09-28T06:05:26;20.65;;;5.72;;
54947;SDS011;41113;41.882;12.530;2022-09-28T06:07:55;16.67;;;4.47;;
54947;SDS011;41113;41.882;12.530;2022-09-28T06:10:22;20.13;;;4.55;;
54947;SDS011;41113;41.882;12.530;2022-09-28T06:12:50;18.30;;;4.53;;
54947;SDS011;41113;41.882;12.530;2022-09-28T06:15:16;17.65;;;4.13;;
54947;SDS011;41113;41.882;12.530;2022-09-28T06:17:42;19.77;;;5.55;;
54947;SDS011;41113;41.882;12.530;2022-09-28T06:20:08;17.85;;;4.93;;
54947;SDS011;41113;41.882;12.530;2022-09-28T06:22:34;18.08;;;4.70;;
54947;SDS011;41113;41.882;12.530;2022-09-28T06:24:59;22.65;;;5.07;;
54947;SDS011;41113;41.882;12.530;2022-09-28T06:27:25;26.73;;;6.47;;
54947;SDS011;41113;41.882;12.530;2022-09-28T06:29:51;20.83;;;4.80;;
54947;SDS011;41113;41.882;12.530;2022-09-28T06:32:16;20.75;;;5.13;;
54947;SDS011;41113;41.882;12.530;2022-09-28T06:34:42;22.73;;;4.90;;
54947;SDS011;41113;41.882;12.530;2022-09-28T06:37:07;21.65;;;4.93;;
54947;SDS011;41113;41.882;12.530;2022-09-28T06:39:32;22.50;;;4.70;;
54947;SDS011;41113;41.882;12.530;2022-09-28T06:41:58;24.23;;;5.53;;
54947;SDS011;41113;41.882;12.530;2022-09-28T06:44:27;18.00;;;4.45;;
54947;SDS011;41113;41.882;12.530;2022-09-28T06:46:53;14.70;;;4.65;;
54947;SDS011;41113;41.882;12.530;2022-09-28T06:49:20;20.52;;;4.55;;
54947;SDS011;41113;41.882;12.530;2022-09-28T06:51:46;23.30;;;4.82;;
54947;SDS011;41113;41.882;12.530;2022-09-28T06:54:12;19.88;;;4.75;;
54947;SDS011;41113;41.882;12.530;2022-09-28T06:56:38;21.77;;;5.60;;
54947;SDS011;41113;41.882;12.530;2022-09-28T06:59:04;24.95;;;5.43;;
54947;SDS011;41113;41.882;12.530;2022-09-28T07:01:29;19.83;;;4.65;;
54947;SDS011;41113;41.882;12.530;2022-09-28T07:03:55;17.98;;;4.40;;
54947;SDS011;41113;41.882;12.530;2022-09-28T07:06:21;15.27;;;4.22;;
54947;SDS011;41113;41.882;12.530;2022-09-28T07:08:48;16.25;;;4.32;;
54947;SDS011;41113;41.882;12.530;2022-09-28T07:11:14;18.13;;;5.13;;
54947;SDS011;41113;41.882;12.530;2022-09-28T07:13:40;20.27;;;5.35;;
54947;SDS011;41113;41.882;12.530;2022-09-28T07:16:05;20.95;;;4.70;;
54947;SDS011;41113;41.882;12.530;2022-09-28T07:18:31;22.83;;;4.93;;
54947;SDS011;41113;41.882;12.530;2022-09-28T07:20:56;14.85;;;4.10;;
54947;SDS011;41113;41.882;12.530;2022-09-28T07:23:23;16.40;;;4.57;;
54947;SDS011;41113;41.882;12.530;2022-09-28T07:25:50;18.92;;;4.32;;
54947;SDS011;41113;41.882;12.530;2022-09-28T07:28:15;22.67;;;5.60;;
54947;SDS011;41113;41.882;12.530;2022-09-28T07:30:41;22.58;;;4.97;;
54947;SDS011;41113;41.882;12.530;2022-09-28T07:33:08;16.58;;;3.90;;
54947;SDS011;41113;41.882;12.530;2022-09-28T07:35:36;17.17;;;4.13;;
54947;SDS011;41113;41.882;12.530;2022-09-28T07:38:06;18.00;;;4.10;;
54947;SDS011;41113;41.882;12.530;2022-09-28T07:40:32;16.10;;;3.80;;
54947;SDS011;41113;41.882;12.530;2022-09-28T07:43:17;14.25;;;4.88;;
54947;SDS011;41113;41.882;12.530;2022-09-28T07:45:47;22.42;;;4.68;;
54947;SDS011;41113;41.882;12.530;2022-09-28T07:48:14;25.40;;;5.05;;
54947;SDS011;41113;41.882;12.530;2022-09-28T07:50:47;19.33;;;4.55;;
54947;SDS011;41113;41.882;12.530;2022-09-28T07:53:15;16.27;;;4.22;;
54947;SDS011;41113;41.882;12.530;2022-09-28T07:55:40;16.55;;;4.10;;
54947;SDS011;41113;41.882;12.530;2022-09-28T07:58:06;16.45;;;3.90;;
54947;SDS011;41113;41.882;12.530;2022-09-28T08:00:31;21.08;;;4.10;;
54947;SDS011;41113;41.882;12.530;2022-09-28T08:03:01;21.20;;;4.20;;
54947;SDS011;41113;41.882;12.530;2022-09-28T08:05:26;16.83;;;3.55;;
54947;SDS011;41113;41.882;12.530;2022-09-28T08:07:56;18.40;;;3.50;;
54947;SDS011;41113;41.882;12.530;2022-09-28T08:10:26;23.85;;;3.90;;
54947;SDS011;41113;41.882;12.530;2022-09-28T08:12:54;18.60;;;3.63;;
54947;SDS011;41113;41.882;12.530;2022-09-28T08:15:20;13.93;;;3.80;;
54947;SDS011;41113;41.882;12.530;2022-09-28T08:17:46;12.70;;;3.22;;
54947;SDS011;41113;41.882;12.530;2022-09-28T08:20:13;14.40;;;3.17;;
54947;SDS011;41113;41.882;12.530;2022-09-28T08:23:03;16.80;;;3.30;;
54947;SDS011;41113;41.882;12.530;2022-09-28T08:25:31;17.02;;;3.00;;
54947;SDS011;41113;41.882;12.530;2022-09-28T08:27:57;23.90;;;5.22;;
54947;SDS011;41113;41.882;12.530;2022-09-28T08:30:24;22.48;;;4.03;;
54947;SDS011;41113;41.882;12.530;2022-09-28T08:32:49;20.70;;;4.07;;
54947;SDS011;41113;41.882;12.530;2022-09-28T08:35:15;47.75;;;6.68;;
54947;SDS011;41113;41.882;12.530;2022-09-28T08:37:40;47.60;;;6.80;;
54947;SDS011;41113;41.882;12.530;2022-09-28T08:40:14;24.98;;;4.72;;
54947;SDS011;41113;41.882;12.530;2022-09-28T08:42:42;17.50;;;4.22;;
54947;SDS011;41113;41.882;12.530;2022-09-28T08:45:13;15.43;;;3.75;;
54947;SDS011;41113;41.882;12.530;2022-09-28T08:47:47;18.88;;;3.40;;
54947;SDS011;41113;41.882;12.530;2022-09-28T08:50:40;13.60;;;3.05;;
54947;SDS011;41113;41.882;12.530;2022-09-28T08:53:25;21.13;;;3.65;;
54947;SDS011;41113;41.882;12.530;2022-09-28T08:56:20;19.33;;;3.75;;
54947;SDS011;41113;41.882;12.530;2022-09-28T08:58:53;16.20;;;3.30;;
54947;SDS011;41113;41.882;12.530;2022-09-28T09:01:27;16.23;;;3.53;;
54947;SDS011;41113;41.882;12.530;2022-09-28T09:03:59;13.70;;;3.10;;
54947;SDS011;41113;41.882;12.530;2022-09-28T09:06:35;18.10;;;3.67;;
54947;SDS011;41113;41.882;12.530;2022-09-28T09:09:09;12.73;;;2.95;;
54947;SDS011;41113;41.882;12.530;2022-09-28T09:11:58;15.82;;;2.58;;
54947;SDS011;41113;41.882;12.530;2022-09-28T09:17:36;12.88;;;3.35;;
54947;SDS011;41113;41.882;12.530;2022-09-28T09:20:16;15.93;;;3.63;;
54947;SDS011;41113;41.882;12.530;2022-09-28T09:22:58;18.35;;;3.47;;
54947;SDS011;41113;41.882;12.530;2022-09-28T09:28:06;13.93;;;3.70;;
54947;SDS011;41113;41.882;12.530;2022-09-28T09:30:51;16.77;;;3.42;;
54947;SDS011;41113;41.882;12.530;2022-09-28T09:33:57;13.82;;;2.80;;
54947;SDS011;41113;41.882;12.530;2022-09-28T09:42:05;13.57;;;3.40;;
54947;SDS011;41113;41.882;12.530;2022-09-28T09:47:42;12.25;;;3.28;;
54947;SDS011;41113;41.882;12.530;2022-09-28T09:50:26;22.05;;;4.65;;
54947;SDS011;41113;41.882;12.530;2022-09-28T09:53:31;16.40;;;3.40;;
54947;SDS011;41113;41.882;12.530;2022-09-28T09:56:22;16.67;;;3.53;;
54947;SDS011;41113;41.882;12.530;2022-09-28T09:58:56;18.58;;;5.10;;
54947;SDS011;41113;41.882;12.530;2022-09-28T10:01:28;11.23;;;3.20;;
54947;SDS011;41113;41.882;12.530;2022-09-28T10:03:58;17.08;;;3.35;;
54947;SDS011;41113;41.882;12.530;2022-09-28T10:06:34;19.23;;;3.70;;
54947;SDS011;41113;41.882;12.530;2022-09-28T10:09:15;14.57;;;3.58;;
54947;SDS011;41113;41.882;12.530;2022-09-28T10:11:43;14.40;;;3.42;;
54947;SDS011;41113;41.882;12.530;2022-09-28T10:14:15;14.90;;;3.35;;
54947;SDS011;41113;41.882;12.530;2022-09-28T10:16:44;11.57;;;2.88;;
54947;SDS011;41113;41.882;12.530;2022-09-28T10:19:12;12.25;;;3.35;;
54947;SDS011;41113;41.882;12.530;2022-09-28T10:21:39;14.63;;;3.42;;
54947;SDS011;41113;41.882;12.530;2022-09-28T10:24:07;21.90;;;6.47;;
54947;SDS011;41113;41.882;12.530;2022-09-28T10:26:40;11.68;;;3.85;;
54947;SDS011;41113;41.882;12.530;2022-09-28T10:29:21;14.55;;;3.17;;
54947;SDS011;41113;41.882;12.530;2022-09-28T10:31:50;19.02;;;3.42;;
54947;SDS011;41113;41.882;12.530;2022-09-28T10:34:18;13.82;;;3.55;;
54947;SDS011;41113;41.882;12.530;2022-09-28T10:36:54;14.68;;;3.50;;
54947;SDS011;41113;41.882;12.530;2022-09-28T10:39:27;13.23;;;3.28;;
54947;SDS011;41113;41.882;12.530;2022-09-28T10:42:00;14.75;;;3.63;;
54947;SDS011;41113;41.882;12.530;2022-09-28T10:44:29;12.85;;;3.00;;
54947;SDS011;41113;41.882;12.530;2022-09-28T10:47:01;16.80;;;3.63;;
54947;SDS011;41113;41.882;12.530;2022-09-28T10:49:30;15.95;;;3.30;;
54947;SDS011;41113;41.882;12.530;2022-09-28T10:52:04;12.90;;;2.97;;
54947;SDS011;41113;41.882;12.530;2022-09-28T10:54:32;18.63;;;3.70;;
54947;SDS011;41113;41.882;12.530;2022-09-28T10:56:58;14.10;;;3.45;;
54947;SDS011;41113;41.882;12.530;2022-09-28T11:02:02;14.23;;;4.00;;
54947;SDS011;41113;41.882;12.530;2022-09-28T11:04:43;11.90;;;4.20;;
54947;SDS011;41113;41.882;12.530;2022-09-28T11:07:16;15.82;;;3.83;;
54947;SDS011;41113;41.882;12.530;2022-09-28T11:09:45;17.25;;;4.40;;
54947;SDS011;41113;41.882;12.530;2022-09-28T11:12:17;20.90;;;4.85;;
54947;SDS011;41113;41.882;12.530;2022-09-28T11:14:45;21.23;;;4.15;;
54947;SDS011;41113;41.882;12.530;2022-09-28T11:19:58;19.55;;;4.07;;
54947;SDS011;41113;41.882;12.530;2022-09-28T11:32:51;15.10;;;3.33;;
54947;SDS011;41113;41.882;12.530;2022-09-28T11:35:23;18.02;;;3.65;;
54947;SDS011;41113;41.882;12.530;2022-09-28T11:38:18;17.95;;;3.80;;
54947;SDS011;41113;41.882;12.530;2022-09-28T11:51:44;16.90;;;3.40;;
54947;SDS011;41113;41.882;12.530;2022-09-28T11:57:00;16.70;;;3.53;;
54947;SDS011;41113;41.882;12.530;2022-09-28T11:59:29;15.25;;;3.30;;
54947;SDS011;41113;41.882;12.530;2022-09-28T12:02:15;15.75;;;4.20;;
54947;SDS011;41113;41.882;12.530;2022-09-28T12:05:10;16.25;;;4.07;;
54947;SDS011;41113;41.882;12.530;2022-09-28T12:07:38;21.30;;;4.65;;
54947;SDS011;41113;41.882;12.530;2022-09-28T12:15:39;13.98;;;3.50;;
54947;SDS011;41113;41.882;12.530;2022-09-28T12:18:53;25.50;;;3.67;;
54947;SDS011;41113;41.882;12.530;2022-09-28T12:21:14;17.65;;;3.47;;
54947;SDS011;41113;41.882;12.530;2022-09-28T12:23:49;13.57;;;3.40;;
54947;SDS011;41113;41.882;12.530;2022-09-28T12:26:30;13.98;;;3.00;;
54947;SDS011;41113;41.882;12.530;2022-09-28T12:29:04;17.33;;;3.42;;
54947;SDS011;41113;41.882;12.530;2022-09-28T12:31:58;14.55;;;2.97;;
54947;SDS011;41113;41.882;12.530;2022-09-28T12:34:30;15.07;;;2.60;;
54947;SDS011;41113;41.882;12.530;2022-09-28T12:50:31;12.70;;;3.20;;
54947;SDS011;41113;41.882;12.530;2022-09-28T12:55:52;12.30;;;2.83;;
54947;SDS011;41113;41.882;12.530;2022-09-28T13:26:12;26.15;;;5.72;;
54947;SDS011;41113;41.882;12.530;2022-09-28T13:28:49;19.20;;;4.35;;
54947;SDS011;41113;41.882;12.530;2022-09-28T13:31:22;17.40;;;4.32;;
54947;SDS011;41113;41.882;12.530;2022-09-28T13:33:55;15.65;;;3.45;;
54947;SDS011;41113;41.882;12.530;2022-09-28T13:38:57;21.38;;;4.72;;
54947;SDS011;41113;41.882;12.530;2022-09-28T13:41:26;21.33;;;5.15;;
54947;SDS011;41113;41.882;12.530;2022-09-28T13:52:01;21.10;;;3.70;;
54947;SDS011;41113;41.882;12.530;2022-09-28T14:00:28;13.25;;;2.80;;
54947;SDS011;41113;41.882;12.530;2022-09-28T14:03:10;13.30;;;3.05;;
54947;SDS011;41113;41.882;12.530;2022-09-28T14:08:37;15.27;;;3.58;;
54947;SDS011;41113;41.882;12.530;2022-09-28T14:16:29;15.15;;;3.03;;
54947;SDS011;41113;41.882;12.530;2022-09-28T14:18:58;13.30;;;2.50;;
54947;SDS011;41113;41.882;12.530;2022-09-28T14:21:51;15.85;;;3.05;;
54947;SDS011;41113;41.882;12.530;2022-09-28T14:30:20;14.88;;;3.00;;
54947;SDS011;41113;41.882;12.530;2022-09-28T14:32:51;12.45;;;3.13;;
54947;SDS011;41113;41.882;12.530;2022-09-28T14:35:30;14.43;;;2.80;;
54947;SDS011;41113;41.882;12.530;2022-09-28T14:37:59;10.85;;;2.50;;
54947;SDS011;41113;41.882;12.530;2022-09-28T14:40:52;15.57;;;3.53;;
54947;SDS011;41113;41.882;12.530;2022-09-28T14:56:37;18.52;;;7.47;;
54947;SDS011;41113;41.882;12.530;2022-09-28T14:59:27;57.05;;;30.55;;
54947;SDS011;41113;41.882;12.530;2022-09-28T15:04:50;84.13;;;47.47;;
54947;SDS011;41113;41.882;12.530;2022-09-28T15:07:22;74.72;;;42.55;;
54947;SDS011;41113;41.882;12.530;2022-09-28T15:09:50;47.95;;;24.63;;
54947;SDS011;41113;41.882;12.530;2022-09-28T15:12:18;139.07;;;67.13;;
54947;SDS011;41113;41.882;12.530;2022-09-28T15:15:01;110.07;;;55.88;;
54947;SDS011;41113;41.882;12.530;2022-09-28T15:17:38;116.47;;;62.47;;
54947;SDS011;41113;41.882;12.530;2022-09-28T15:22:31;35.83;;;16.92;;
54947;SDS011;41113;41.882;12.530;2022-09-28T15:24:58;33.08;;;13.02;;
54947;SDS011;41113;41.882;12.530;2022-09-28T15:27:32;26.92;;;11.32;;
54947;SDS011;41113;41.882;12.530;2022-09-28T15:32:43;22.95;;;13.32;;
54947;SDS011;41113;41.882;12.530;2022-09-28T15:35:11;181.63;;;102.38;;
54947;SDS011;41113;41.882;12.530;2022-09-28T15:37:44;208.55;;;112.95;;
54947;SDS011;41113;41.882;12.530;2022-09-28T15:40:16;110.82;;;54.85;;
54947;SDS011;41113;41.882;12.530;2022-09-28T15:42:45;169.65;;;91.57;;
54947;SDS011;41113;41.882;12.530;2022-09-28T15:51:04;50.20;;;30.25;;
54947;SDS011;41113;41.882;12.530;2022-09-28T15:53:35;35.95;;;18.42;;
54947;SDS011;41113;41.882;12.530;2022-09-28T15:56:05;24.38;;;11.30;;
54947;SDS011;41113;41.882;12.530;2022-09-28T15:58:34;21.70;;;8.48;;
54947;SDS011;41113;41.882;12.530;2022-09-28T16:04:00;15.57;;;5.40;;
54947;SDS011;41113;41.882;12.530;2022-09-28T16:06:44;19.05;;;5.25;;
54947;SDS011;41113;41.882;12.530;2022-09-28T16:15:24;14.40;;;5.13;;
54947;SDS011;41113;41.882;12.530;2022-09-28T16:17:54;19.90;;;4.75;;
54947;SDS011;41113;41.882;12.530;2022-09-28T16:20:26;14.77;;;4.55;;
54947;SDS011;41113;41.882;12.530;2022-09-28T16:22:56;22.45;;;4.55;;
54947;SDS011;41113;41.882;12.530;2022-09-28T16:25:30;20.58;;;4.35;;
54947;SDS011;41113;41.882;12.530;2022-09-28T16:27:59;17.80;;;4.57;;
54947;SDS011;41113;41.882;12.530;2022-09-28T16:30:26;16.73;;;4.18;;
54947;SDS011;41113;41.882;12.530;2022-09-28T16:32:57;13.60;;;4.03;;
54947;SDS011;41113;41.882;12.530;2022-09-28T16:38:10;15.07;;;3.63;;
54947;SDS011;41113;41.882;12.530;2022-09-28T16:40:41;16.67;;;3.42;;
54947;SDS011;41113;41.882;12.530;2022-09-28T16:43:16;13.57;;;3.45;;
54947;SDS011;41113;41.882;12.530;2022-09-28T16:45:50;17.70;;;6.20;;
54947;SDS011;41113;41.882;12.530;2022-09-28T16:48:24;12.85;;;3.95;;
54947;SDS011;41113;41.882;12.530;2022-09-28T16:50:54;16.67;;;4.72;;
54947;SDS011;41113;41.882;12.530;2022-09-28T16:53:20;16.45;;;4.05;;
54947;SDS011;41113;41.882;12.530;2022-09-28T16:56:05;16.52;;;3.90;;
54947;SDS011;41113;41.882;12.530;2022-09-28T16:58:31;15.10;;;3.13;;
54947;SDS011;41113;41.882;12.530;2022-09-28T17:00:57;10.30;;;2.95;;
54947;SDS011;41113;41.882;12.530;2022-09-28T17:03:24;14.52;;;2.80;;
54947;SDS011;41113;41.882;12.530;2022-09-28T17:05:51;15.45;;;2.58;;
54947;SDS011;41113;41.882;12.530;2022-09-28T17:08:18;13.43;;;3.28;;
54947;SDS011;41113;41.882;12.530;2022-09-28T17:10:53;14.15;;;2.85;;
54947;SDS011;41113;41.882;12.530;2022-09-28T17:13:26;14.05;;;2.88;;
54947;SDS011;41113;41.882;12.530;2022-09-28T17:16:00;12.45;;;2.72;;
54947;SDS011;41113;41.882;12.530;2022-09-28T17:18:30;15.20;;;3.50;;
54947;SDS011;41113;41.882;12.530;2022-09-28T17:20:56;14.00;;;3.20;;
54947;SDS011;41113;41.882;12.530;2022-09-28T17:23:23;14.32;;;3.20;;
54947;SDS011;41113;41.882;12.530;2022-09-28T17:25:49;18.05;;;3.35;;
54947;SDS011;41113;41.882;12.530;2022-09-28T17:28:25;15.30;;;3.17;;
54947;SDS011;41113;41.882;12.530;2022-09-28T17:30:53;15.90;;;3.88;;
54947;SDS011;41113;41.882;12.530;2022-09-28T17:33:19;20.38;;;3.38;;
54947;SDS011;41113;41.882;12.530;2022-09-28T17:35:45;15.75;;;3.67;;
54947;SDS011;41113;41.882;12.530;2022-09-28T17:38:12;16.33;;;2.83;;
54947;SDS011;41113;41.882;12.530;2022-09-28T17:40:39;16.77;;;3.13;;
54947;SDS011;41113;41.882;12.530;2022-09-28T17:43:05;20.20;;;3.75;;
54947;SDS011;41113;41.882;12.530;2022-09-28T17:45:32;18.77;;;4.03;;
54947;SDS011;41113;41.882;12.530;2022-09-28T17:48:03;20.45;;;3.67;;
54947;SDS011;41113;41.882;12.530;2022-09-28T17:50:30;19.02;;;3.92;;
54947;SDS011;41113;41.882;12.530;2022-09-28T17:52:57;21.25;;;4.32;;
54947;SDS011;41113;41.882;12.530;2022-09-28T17:55:27;17.45;;;3.78;;
54947;SDS011;41113;41.882;12.530;2022-09-28T17:57:55;15.52;;;3.83;;
54947;SDS011;41113;41.882;12.530;2022-09-28T18:00:22;18.40;;;4.13;;
54947;SDS011;41113;41.882;12.530;2022-09-28T18:02:51;22.58;;;4.38;;
54947;SDS011;41113;41.882;12.530;2022-09-28T18:05:20;19.02;;;3.63;;